createdAt,value
2023-04-11T00:00:32.980Z,110.85
2023-04-11T00:01:33.024Z,110.25
2023-04-11T00:02:33.209Z,109.61
2023-04-11T00:03:33.361Z,109.57
2023-04-11T00:04:33.191Z,110.26
2023-04-11T00:05:33.154Z,112.26
2023-04-11T00:06:33.189Z,113.69
2023-04-11T00:07:33.237Z,110.94
2023-04-11T00:08:33.299Z,110.97
2023-04-11T00:09:33.300Z,110.38
2023-04-11T00:10:33.366Z,110.08
2023-04-11T00:11:33.378Z,111.76
2023-04-11T00:12:33.424Z,110.81
2023-04-11T00:13:33.464Z,112.46
2023-04-11T00:14:33.509Z,110.97
2023-04-11T00:15:33.541Z,109.09
2023-04-11T00:16:33.608Z,109.32
2023-04-11T00:17:33.618Z,108.99
2023-04-11T00:18:33.665Z,109.45
2023-04-11T00:19:33.738Z,106.63
2023-04-11T00:20:33.736Z,106.21
2023-04-11T00:21:33.767Z,105.33
2023-04-11T00:22:33.808Z,102.70
2023-04-11T00:23:33.850Z,103.73
2023-04-11T00:24:33.890Z,100.83
2023-04-11T00:25:33.921Z,102.03
2023-04-11T00:26:33.978Z,101.17
2023-04-11T00:27:34.000Z,100.23
2023-04-11T00:28:34.060Z,100.79
2023-04-11T00:29:34.118Z,99.60
2023-04-11T00:30:34.130Z,98.93
2023-04-11T00:31:34.201Z,98.11
2023-04-11T00:32:34.227Z,98.54
2023-04-11T00:33:34.261Z,99.20
2023-04-11T00:34:34.310Z,99.99
2023-04-11T00:35:34.601Z,100.32
2023-04-11T00:36:34.435Z,100.20
2023-04-11T00:37:34.402Z,99.17
2023-04-11T00:38:34.449Z,99.52
2023-04-11T00:39:34.493Z,100.77
2023-04-11T00:40:34.547Z,100.28
2023-04-11T00:41:34.576Z,99.84
2023-04-11T00:42:34.617Z,100.92
2023-04-11T00:43:34.653Z,102.59
2023-04-11T00:44:34.689Z,100.18
2023-04-11T00:45:34.752Z,99.72
2023-04-11T00:46:34.759Z,99.75
2023-04-11T00:47:34.845Z,99.92
2023-04-11T00:48:34.839Z,99.38
2023-04-11T00:49:34.872Z,100.26
2023-04-11T00:50:34.918Z,99.79
2023-04-11T00:51:34.950Z,100.06
2023-04-11T00:52:34.990Z,100.69
2023-04-11T00:53:35.018Z,101.88
2023-04-11T00:54:35.055Z,100.89
2023-04-11T00:55:35.095Z,100.90
2023-04-11T00:56:35.142Z,100.63
2023-04-11T00:57:35.170Z,101.30
2023-04-11T00:58:35.225Z,101.99
2023-04-11T00:59:35.253Z,102.12
2023-04-11T01:00:35.283Z,102.00
2023-04-11T01:01:35.365Z,101.86
2023-04-11T01:02:35.397Z,102.90
2023-04-11T01:03:35.517Z,102.86
2023-04-11T01:04:35.449Z,101.68
2023-04-11T01:05:35.481Z,101.46
2023-04-11T01:06:35.519Z,101.25
2023-04-11T01:07:35.549Z,103.86
2023-04-11T01:08:35.587Z,101.26
2023-04-11T01:09:35.627Z,104.36
2023-04-11T01:10:35.672Z,101.75
2023-04-11T01:11:35.713Z,101.24
2023-04-11T01:12:35.758Z,101.64
2023-04-11T01:13:35.791Z,102.02
2023-04-11T01:14:35.840Z,102.62
2023-04-11T01:15:35.869Z,104.22
2023-04-11T01:16:35.986Z,102.50
2023-04-11T01:17:36.017Z,102.92
2023-04-11T01:18:35.991Z,103.31
2023-04-11T01:19:36.086Z,104.97
2023-04-11T01:20:36.067Z,103.47
2023-04-11T01:21:36.116Z,105.85
2023-04-11T01:22:36.153Z,105.83
2023-04-11T01:23:36.186Z,103.48
2023-04-11T01:24:36.228Z,103.41
2023-04-11T01:25:36.274Z,105.56
2023-04-11T01:26:36.306Z,103.37
2023-04-11T01:27:36.373Z,102.89
2023-04-11T01:28:36.419Z,103.52
2023-04-11T01:29:36.455Z,103.76
2023-04-11T01:30:36.530Z,104.70
2023-04-11T01:31:36.528Z,104.81
2023-04-11T01:32:36.612Z,103.64
2023-04-11T01:33:36.614Z,105.56
2023-04-11T01:34:36.656Z,103.26
2023-04-11T01:35:36.734Z,103.28
2023-04-11T01:36:36.739Z,102.70
2023-04-11T01:37:36.781Z,103.61
2023-04-11T01:38:36.814Z,104.08
2023-04-11T01:39:36.857Z,102.96
2023-04-11T01:40:36.903Z,105.35
2023-04-11T01:41:36.946Z,104.13
2023-04-11T01:42:37.001Z,102.45
2023-04-11T01:43:37.044Z,103.18
2023-04-11T01:44:37.064Z,101.77
2023-04-11T01:45:37.120Z,102.21
2023-04-11T01:46:37.151Z,103.09
2023-04-11T01:47:37.233Z,103.89
2023-04-11T01:48:37.267Z,102.77
2023-04-11T01:49:37.266Z,105.24
2023-04-11T01:50:37.336Z,103.32
2023-04-11T01:51:37.347Z,104.77
2023-04-11T01:52:37.380Z,104.37
2023-04-11T01:53:37.428Z,103.10
2023-04-11T01:54:37.479Z,104.32
2023-04-11T01:55:37.509Z,102.03
2023-04-11T01:56:37.559Z,102.16
2023-04-11T01:57:37.595Z,103.57
2023-04-11T01:58:37.640Z,104.00
2023-04-11T01:59:37.673Z,102.97
2023-04-11T02:00:37.716Z,102.97
2023-04-11T02:01:37.877Z,103.13
2023-04-11T02:02:37.839Z,102.93
2023-04-11T02:03:38.016Z,103.76
2023-04-11T02:04:37.880Z,103.39
2023-04-11T02:05:37.917Z,104.41
2023-04-11T02:06:37.971Z,102.98
2023-04-11T02:07:38.017Z,104.11
2023-04-11T02:08:38.062Z,104.36
2023-04-11T02:09:38.093Z,102.78
2023-04-11T02:10:38.149Z,103.70
2023-04-11T02:11:38.194Z,104.14
2023-04-11T02:12:38.257Z,104.31
2023-04-11T02:13:38.316Z,104.05
2023-04-11T02:14:39.170Z,104.77
2023-04-11T02:15:38.370Z,102.87
2023-04-11T02:16:38.412Z,103.13
2023-04-11T02:17:39.221Z,104.22
2023-04-11T02:18:38.505Z,103.07
2023-04-11T02:19:38.551Z,104.55
2023-04-11T02:20:38.665Z,105.40
2023-04-11T02:21:38.637Z,104.81
2023-04-11T02:22:38.685Z,105.64
2023-04-11T02:23:38.732Z,106.61
2023-04-11T02:24:38.801Z,102.83
2023-04-11T02:25:38.839Z,104.81
2023-04-11T02:26:38.885Z,104.75
2023-04-11T02:27:38.918Z,105.20
2023-04-11T02:28:38.966Z,103.48
2023-04-11T02:29:39.005Z,103.25
2023-04-11T02:30:39.135Z,103.61
2023-04-11T02:31:39.244Z,104.02
2023-04-11T02:32:39.187Z,103.84
2023-04-11T02:33:39.182Z,103.89
2023-04-11T02:34:39.216Z,104.49
2023-04-11T02:35:39.266Z,103.83
2023-04-11T02:36:39.293Z,103.76
2023-04-11T02:37:39.331Z,104.77
2023-04-11T02:38:39.383Z,104.41
2023-04-11T02:39:39.482Z,104.52
2023-04-11T02:40:39.469Z,106.37
2023-04-11T02:41:39.512Z,105.27
2023-04-11T02:42:39.551Z,106.70
2023-04-11T02:43:39.695Z,106.92
2023-04-11T02:44:39.631Z,105.35
2023-04-11T02:45:40.182Z,106.19
2023-04-11T02:46:39.761Z,102.63
2023-04-11T02:47:39.857Z,104.87
2023-04-11T02:48:39.823Z,104.10
2023-04-11T02:49:39.855Z,105.43
2023-04-11T02:50:39.911Z,104.89
2023-04-11T02:51:39.945Z,105.31
2023-04-11T02:52:40.084Z,105.83
2023-04-11T02:53:40.034Z,105.27
2023-04-11T02:54:40.070Z,104.27
2023-04-11T02:55:40.113Z,104.75
2023-04-11T02:56:40.162Z,105.63
2023-04-11T02:57:40.201Z,103.98
2023-04-11T02:58:40.237Z,103.23
2023-04-11T02:59:40.282Z,103.84
2023-04-11T03:00:40.331Z,102.79
2023-04-11T03:01:40.468Z,102.32
2023-04-11T03:02:40.556Z,103.04
2023-04-11T03:03:40.539Z,102.01
2023-04-11T03:04:40.513Z,101.86
2023-04-11T03:05:40.556Z,102.56
2023-04-11T03:06:40.585Z,101.07
2023-04-11T03:07:40.715Z,100.10
2023-04-11T03:08:40.670Z,102.04
2023-04-11T03:09:40.716Z,100.93
2023-04-11T03:10:40.771Z,100.14
2023-04-11T03:11:40.794Z,101.42
2023-04-11T03:12:40.841Z,101.29
2023-04-11T03:13:40.880Z,101.20
2023-04-11T03:14:40.922Z,101.06
2023-04-11T03:15:40.988Z,101.62
2023-04-11T03:16:41.005Z,101.67
2023-04-11T03:17:41.080Z,102.51
2023-04-11T03:18:41.101Z,103.41
2023-04-11T03:19:41.134Z,102.08
2023-04-11T03:20:41.177Z,103.73
2023-04-11T03:21:41.270Z,104.41
2023-04-11T03:22:41.274Z,103.49
2023-04-11T03:23:41.328Z,104.45
2023-04-11T03:24:41.364Z,103.64
2023-04-11T03:25:41.411Z,104.86
2023-04-11T03:26:41.469Z,105.87
2023-04-11T03:27:42.198Z,103.84
2023-04-11T03:28:41.555Z,104.23
2023-04-11T03:29:41.590Z,104.85
2023-04-11T03:30:41.650Z,105.57
2023-04-11T03:31:41.726Z,105.29
2023-04-11T03:32:41.796Z,102.57
2023-04-11T03:33:41.777Z,104.73
2023-04-11T03:34:41.834Z,102.53
2023-04-11T03:35:41.911Z,103.85
2023-04-11T03:36:41.916Z,103.70
2023-04-11T03:37:41.967Z,102.98
2023-04-11T03:38:42.019Z,103.40
2023-04-11T03:39:42.062Z,104.15
2023-04-11T03:40:42.105Z,103.36
2023-04-11T03:41:42.151Z,103.96
2023-04-11T03:42:42.201Z,103.91
2023-04-11T03:43:42.246Z,104.00
2023-04-11T03:44:42.287Z,103.74
2023-04-11T03:45:42.329Z,104.38
2023-04-11T03:46:42.483Z,104.45
2023-04-11T03:47:42.469Z,105.32
2023-04-11T03:48:42.483Z,103.78
2023-04-11T03:49:42.514Z,105.06
2023-04-11T03:50:42.562Z,103.65
2023-04-11T03:51:42.599Z,102.84
2023-04-11T03:52:42.634Z,104.77
2023-04-11T03:53:42.700Z,103.26
2023-04-11T03:54:42.735Z,105.42
2023-04-11T03:55:42.774Z,104.85
2023-04-11T03:56:42.814Z,104.63
2023-04-11T03:57:42.872Z,104.42
2023-04-11T03:58:42.927Z,104.53
2023-04-11T03:59:43.002Z,105.89
2023-04-11T04:00:43.003Z,104.87
2023-04-11T04:01:43.094Z,105.23
2023-04-11T04:02:43.298Z,105.75
2023-04-11T04:03:43.325Z,105.60
2023-04-11T04:04:43.288Z,104.87
2023-04-11T04:05:43.230Z,104.58
2023-04-11T04:06:43.261Z,106.35
2023-04-11T04:07:43.327Z,107.05
2023-04-11T04:08:43.369Z,106.94
2023-04-11T04:09:43.416Z,105.45
2023-04-11T04:10:43.473Z,106.41
2023-04-11T04:11:43.529Z,106.63
2023-04-11T04:12:43.567Z,107.08
2023-04-11T04:13:43.618Z,106.30
2023-04-11T04:14:43.658Z,104.79
2023-04-11T04:15:43.697Z,105.41
2023-04-11T04:16:43.806Z,105.91
2023-04-11T04:17:43.834Z,107.77
2023-04-11T04:18:43.846Z,108.08
2023-04-11T04:19:43.897Z,107.57
2023-04-11T04:20:43.937Z,108.54
2023-04-11T04:21:43.980Z,107.66
2023-04-11T04:22:44.030Z,107.37
2023-04-11T04:23:44.078Z,105.10
2023-04-11T04:24:44.124Z,107.09
2023-04-11T04:25:44.158Z,108.22
2023-04-11T04:26:44.209Z,107.40
2023-04-11T04:27:44.351Z,109.13
2023-04-11T04:28:44.308Z,107.94
2023-04-11T04:29:44.346Z,107.42
2023-04-11T04:30:44.406Z,107.63
2023-04-11T04:31:44.545Z,108.15
2023-04-11T04:32:44.543Z,107.00
2023-04-11T04:33:44.567Z,106.30
2023-04-11T04:34:44.606Z,107.13
2023-04-11T04:35:44.677Z,107.73
2023-04-11T04:36:44.705Z,107.95
2023-04-11T04:37:44.736Z,105.98
2023-04-11T04:38:44.796Z,107.62
2023-04-11T04:39:44.833Z,105.48
2023-04-11T04:40:44.873Z,107.23
2023-04-11T04:41:45.012Z,106.13
2023-04-11T04:42:44.968Z,107.06
2023-04-11T04:43:45.028Z,106.61
2023-04-11T04:44:45.068Z,105.81
2023-04-11T04:45:45.176Z,107.78
2023-04-11T04:46:45.162Z,105.98
2023-04-11T04:47:45.246Z,106.28
2023-04-11T04:48:45.264Z,106.37
2023-04-11T04:49:45.307Z,105.41
2023-04-11T04:50:45.359Z,105.63
2023-04-11T04:51:45.388Z,104.38
2023-04-11T04:52:45.440Z,105.45
2023-04-11T04:53:45.471Z,106.93
2023-04-11T04:54:45.508Z,105.78
2023-04-11T04:55:45.547Z,105.79
2023-04-11T04:56:45.602Z,107.01
2023-04-11T04:57:45.650Z,106.61
2023-04-11T04:58:45.690Z,106.71
2023-04-11T04:59:45.737Z,107.81
2023-04-11T05:00:45.784Z,104.71
2023-04-11T05:01:45.905Z,106.98
2023-04-11T05:02:45.937Z,106.95
2023-04-11T05:03:45.994Z,106.41
2023-04-11T05:04:45.941Z,108.21
2023-04-11T05:05:45.986Z,106.47
2023-04-11T05:06:46.031Z,106.53
2023-04-11T05:07:46.079Z,107.57
2023-04-11T05:08:46.122Z,107.35
2023-04-11T05:09:46.172Z,107.60
2023-04-11T05:10:46.219Z,108.57
2023-04-11T05:11:46.252Z,107.27
2023-04-11T05:12:46.310Z,108.17
2023-04-11T05:13:46.354Z,108.61
2023-04-11T05:14:46.422Z,106.76
2023-04-11T05:15:46.438Z,107.42
2023-04-11T05:16:46.533Z,108.88
2023-04-11T05:17:46.558Z,101.43
2023-04-11T05:18:46.574Z,102.75
2023-04-11T05:19:46.628Z,105.14
2023-04-11T05:20:46.669Z,106.64
2023-04-11T05:21:46.724Z,100.81
2023-04-11T05:22:46.790Z,97.84
2023-04-11T05:23:46.841Z,99.44
2023-04-11T05:24:46.938Z,102.14
2023-04-11T05:25:46.951Z,91.76
2023-04-11T05:26:47.009Z,79.63
2023-04-11T05:27:47.067Z,78.01
2023-04-11T05:28:47.129Z,72.66
2023-04-11T05:29:47.153Z,79.93
2023-04-11T05:30:47.253Z,84.70
2023-04-11T05:31:47.276Z,93.21
2023-04-11T05:32:47.379Z,96.28
2023-04-11T05:33:47.392Z,100.37
2023-04-11T05:34:47.440Z,101.67
2023-04-11T05:35:47.540Z,103.04
2023-04-11T05:36:47.576Z,103.09
2023-04-11T05:37:47.590Z,105.13
2023-04-11T05:38:47.635Z,103.06
2023-04-11T05:39:48.641Z,103.24
2023-04-11T05:40:47.606Z,103.78
2023-04-11T05:41:47.599Z,105.23
2023-04-11T05:42:47.583Z,106.64
2023-04-11T05:43:47.569Z,109.01
2023-04-11T05:44:47.557Z,110.23
2023-04-11T05:45:48.397Z,110.55
2023-04-11T05:46:47.538Z,111.52
2023-04-11T05:47:47.558Z,111.95
2023-04-11T05:48:47.541Z,112.58
2023-04-11T05:49:47.603Z,112.40
2023-04-11T05:50:47.643Z,113.31
2023-04-11T05:51:47.686Z,110.56
2023-04-11T05:52:47.713Z,112.08
2023-04-11T05:53:47.765Z,112.62
2023-04-11T05:54:47.816Z,112.24
2023-04-11T05:55:47.845Z,112.65
2023-04-11T05:56:47.878Z,112.23
2023-04-11T05:57:47.917Z,113.20
2023-04-11T05:58:47.962Z,112.39
2023-04-11T05:59:47.988Z,112.94
2023-04-11T06:00:48.022Z,113.82
2023-04-11T06:01:48.183Z,112.15
2023-04-11T06:02:48.321Z,113.16
2023-04-11T06:03:48.301Z,114.25
2023-04-11T06:04:48.197Z,114.07
2023-04-11T06:05:48.226Z,114.43
2023-04-11T06:06:48.271Z,114.18
2023-04-11T06:07:48.323Z,115.45
2023-04-11T06:08:48.368Z,115.84
2023-04-11T06:09:48.399Z,115.37
2023-04-11T06:10:48.454Z,117.22
2023-04-11T06:11:48.485Z,119.63
2023-04-11T06:12:48.518Z,117.40
2023-04-11T06:13:48.568Z,116.83
2023-04-11T06:14:48.605Z,117.63
2023-04-11T06:15:48.679Z,119.86
2023-04-11T06:16:49.644Z,119.97
2023-04-11T06:17:48.717Z,119.96
2023-04-11T06:18:48.603Z,120.26
2023-04-11T06:19:48.596Z,120.54
2023-04-11T06:20:48.576Z,121.52
2023-04-11T06:21:48.582Z,121.21
2023-04-11T06:22:48.557Z,120.75
2023-04-11T06:23:48.543Z,121.23
2023-04-11T06:24:48.520Z,123.21
2023-04-11T06:25:48.511Z,122.74
2023-04-11T06:26:49.184Z,121.81
2023-04-11T06:27:48.597Z,123.41
2023-04-11T06:28:48.632Z,123.26
2023-04-11T06:29:49.631Z,123.38
2023-04-11T06:30:48.621Z,123.65
2023-04-11T06:31:48.623Z,124.59
2023-04-11T06:32:48.597Z,124.05
2023-04-11T06:33:48.594Z,124.95
2023-04-11T06:34:48.572Z,126.56
2023-04-11T06:35:48.618Z,126.10
2023-04-11T06:36:48.564Z,126.46
2023-04-11T06:37:48.559Z,125.94
2023-04-11T06:38:48.551Z,124.09
2023-04-11T06:39:48.550Z,124.38
2023-04-11T06:40:48.539Z,125.66
2023-04-11T06:41:48.673Z,126.46
2023-04-11T06:42:49.283Z,127.65
2023-04-11T06:43:48.664Z,126.45
2023-04-11T06:44:48.770Z,126.52
2023-04-11T06:45:48.745Z,127.17
2023-04-11T06:46:48.830Z,126.71
2023-04-11T06:47:48.875Z,126.52
2023-04-11T06:48:48.872Z,127.05
2023-04-11T06:49:49.223Z,128.60
2023-04-11T06:50:48.955Z,128.06
2023-04-11T06:51:48.990Z,127.58
2023-04-11T06:52:49.041Z,126.32
2023-04-11T06:53:49.079Z,128.32
2023-04-11T06:54:49.142Z,127.07
2023-04-11T06:55:49.178Z,127.05
2023-04-11T06:56:49.214Z,127.55
2023-04-11T06:57:49.266Z,128.97
2023-04-11T06:58:49.298Z,128.20
2023-04-11T06:59:49.335Z,128.77
2023-04-11T07:00:49.387Z,128.58
2023-04-11T07:01:49.534Z,128.28
2023-04-11T07:02:49.757Z,128.52
2023-04-11T07:03:49.638Z,128.78
2023-04-11T07:04:49.600Z,128.04
2023-04-11T07:05:49.604Z,129.80
2023-04-11T07:06:49.732Z,128.08
2023-04-11T07:07:49.682Z,129.26
2023-04-11T07:08:49.760Z,129.33
2023-04-11T07:09:49.776Z,128.98
2023-04-11T07:10:49.814Z,130.35
2023-04-11T07:11:50.710Z,127.99
2023-04-11T07:12:49.889Z,127.83
2023-04-11T07:13:49.927Z,128.13
2023-04-11T07:14:49.974Z,127.54
2023-04-11T07:15:50.026Z,128.33
2023-04-11T07:16:50.046Z,128.07
2023-04-11T07:17:52.604Z,129.05
2023-04-11T07:18:50.084Z,128.90
2023-04-11T07:19:50.082Z,129.68
2023-04-11T07:20:50.126Z,127.12
2023-04-11T07:21:50.096Z,127.05
2023-04-11T07:22:50.075Z,76.86
2023-04-11T07:23:50.071Z,33.84
2023-04-11T07:24:50.061Z,0.00
2023-04-11T07:25:50.065Z,0.00
2023-04-11T07:26:50.789Z,0.00
2023-04-11T07:27:50.079Z,0.00
2023-04-11T07:28:50.088Z,0.00
2023-04-11T07:29:50.108Z,0.00
2023-04-11T07:30:50.109Z,0.00
2023-04-11T07:31:50.141Z,13.60
2023-04-11T07:32:50.142Z,37.57
2023-04-11T07:33:50.125Z,54.58
2023-04-11T07:34:50.127Z,63.84
2023-04-11T07:35:50.165Z,70.13
2023-04-11T07:36:50.138Z,77.95
2023-04-11T07:37:50.125Z,87.77
2023-04-11T07:38:50.123Z,97.73
2023-04-11T07:39:50.125Z,107.54
2023-04-11T07:40:50.105Z,116.43
2023-04-11T07:41:50.177Z,127.97
2023-04-11T07:42:50.102Z,137.94
2023-04-11T07:43:50.115Z,149.39
2023-04-11T07:44:50.092Z,161.49
2023-04-11T07:45:50.100Z,175.38
2023-04-11T07:46:50.077Z,187.24
2023-04-11T07:47:50.086Z,198.83
2023-04-11T07:48:50.063Z,208.44
2023-04-11T07:49:50.055Z,216.75
2023-04-11T07:50:50.039Z,225.35
2023-04-11T07:51:50.025Z,233.39
2023-04-11T07:52:50.012Z,240.93
2023-04-11T07:53:50.036Z,248.37
2023-04-11T07:54:49.997Z,250.00
2023-04-11T07:55:50.061Z,248.62
2023-04-11T07:56:49.979Z,250.00
2023-04-11T07:57:49.968Z,250.00
2023-04-11T07:58:49.964Z,249.75
2023-04-11T07:59:49.954Z,249.72
2023-04-11T08:00:49.922Z,249.97
2023-04-11T08:01:49.947Z,250.10
2023-04-11T08:02:50.124Z,250.39
2023-04-11T08:03:49.964Z,249.92
2023-04-11T08:04:50.015Z,250.00
2023-04-11T08:05:49.848Z,250.00
2023-04-11T08:06:49.838Z,248.83
2023-04-11T08:07:49.855Z,250.00
2023-04-11T08:08:49.908Z,250.00
2023-04-11T08:09:50.008Z,249.62
2023-04-11T08:10:51.924Z,250.00
2023-04-11T08:11:49.985Z,249.67
2023-04-11T08:12:50.018Z,249.63
2023-04-11T08:13:50.103Z,250.00
2023-04-11T08:14:50.094Z,249.28
2023-04-11T08:15:50.128Z,250.00
2023-04-11T08:16:51.592Z,248.89
2023-04-11T08:17:50.229Z,250.00
2023-04-11T08:18:50.134Z,240.92
2023-04-11T08:19:50.110Z,231.16
2023-04-11T08:20:50.098Z,225.78
2023-04-11T08:21:50.077Z,207.83
2023-04-11T08:22:50.062Z,207.25
2023-04-11T08:23:50.048Z,183.61
2023-04-11T08:24:50.045Z,172.37
2023-04-11T08:25:50.030Z,174.34
2023-04-11T08:26:50.052Z,180.80
2023-04-11T08:27:50.015Z,154.17
2023-04-11T08:28:50.012Z,170.37
2023-04-11T08:29:49.997Z,177.13
2023-04-11T08:30:50.010Z,179.75
2023-04-11T08:31:49.981Z,178.69
2023-04-11T08:32:50.033Z,177.81
2023-04-11T08:33:49.969Z,179.38
2023-04-11T08:34:49.955Z,180.84
2023-04-11T08:35:49.971Z,181.99
2023-04-11T08:36:49.932Z,185.02
2023-04-11T08:37:49.925Z,186.91
2023-04-11T08:38:49.939Z,189.56
2023-04-11T08:39:49.896Z,192.06
2023-04-11T08:40:49.990Z,193.87
2023-04-11T08:41:49.868Z,196.87
2023-04-11T08:42:49.857Z,198.99
2023-04-11T08:43:49.854Z,202.03
2023-04-11T08:44:49.824Z,203.21
2023-04-11T08:45:49.815Z,207.11
2023-04-11T08:46:49.783Z,207.72
2023-04-11T08:47:49.919Z,210.06
2023-04-11T08:48:49.803Z,212.61
2023-04-11T08:49:49.725Z,214.74
2023-04-11T08:50:49.722Z,216.81
2023-04-11T08:51:49.704Z,220.99
2023-04-11T08:52:49.686Z,225.61
2023-04-11T08:53:49.680Z,228.66
2023-04-11T08:54:49.655Z,230.21
2023-04-11T08:55:49.640Z,234.13
2023-04-11T08:56:49.634Z,236.02
2023-04-11T08:57:49.621Z,237.92
2023-04-11T08:58:49.596Z,239.73
2023-04-11T08:59:49.576Z,241.00
2023-04-11T09:00:49.563Z,243.47
2023-04-11T09:01:49.638Z,245.16
2023-04-11T09:02:49.611Z,246.81
2023-04-11T09:03:49.508Z,249.34
2023-04-11T09:04:49.544Z,249.51
2023-04-11T09:05:49.467Z,249.62
2023-04-11T09:06:49.476Z,250.00
2023-04-11T09:07:49.900Z,248.90
2023-04-11T09:08:49.553Z,248.41
2023-04-11T09:09:49.594Z,250.00
2023-04-11T09:10:49.640Z,250.00
2023-04-11T09:11:49.694Z,249.69
2023-04-11T09:12:49.733Z,249.81
2023-04-11T09:13:49.780Z,249.28
2023-04-11T09:14:49.871Z,249.87
2023-04-11T09:15:49.902Z,245.36
2023-04-11T09:16:49.904Z,247.27
2023-04-11T09:17:49.989Z,247.90
2023-04-11T09:18:50.000Z,243.64
2023-04-11T09:19:50.044Z,240.94
2023-04-11T09:20:50.068Z,232.31
2023-04-11T09:21:50.099Z,234.79
2023-04-11T09:22:50.147Z,238.63
2023-04-11T09:23:50.170Z,240.50
2023-04-11T09:24:50.210Z,239.74
2023-04-11T09:25:50.260Z,239.75
2023-04-11T09:26:50.295Z,241.92
2023-04-11T09:27:50.340Z,242.16
2023-04-11T09:28:50.372Z,236.58
2023-04-11T09:29:50.421Z,241.85
2023-04-11T09:30:50.467Z,244.45
2023-04-11T09:31:50.586Z,244.35
2023-04-11T09:32:50.583Z,246.74
2023-04-11T09:33:50.655Z,246.66
2023-04-11T09:34:50.623Z,249.89
2023-04-11T09:35:50.716Z,249.42
2023-04-11T09:36:50.720Z,250.25
2023-04-11T09:37:50.765Z,249.76
2023-04-11T09:38:50.827Z,249.48
2023-04-11T09:39:50.862Z,249.15
2023-04-11T09:40:50.895Z,249.88
2023-04-11T09:41:50.924Z,249.38
2023-04-11T09:42:50.974Z,249.42
2023-04-11T09:43:51.049Z,250.00
2023-04-11T09:44:51.061Z,249.75
2023-04-11T09:45:54.568Z,249.88
2023-04-11T09:46:51.741Z,250.00
2023-04-11T09:47:51.108Z,250.16
2023-04-11T09:48:51.064Z,248.68
2023-04-11T09:49:51.040Z,249.75
2023-04-11T09:50:51.001Z,249.41
2023-04-11T09:51:50.992Z,249.60
2023-04-11T09:52:50.973Z,249.44
2023-04-11T09:53:50.962Z,249.83
2023-04-11T09:54:50.949Z,249.89
2023-04-11T09:55:50.937Z,250.29
2023-04-11T09:56:50.915Z,249.58
2023-04-11T09:57:50.904Z,249.64
2023-04-11T09:58:50.886Z,249.40
2023-04-11T09:59:50.865Z,248.98
2023-04-11T10:00:51.345Z,250.00
2023-04-11T10:01:50.936Z,249.78
2023-04-11T10:02:51.439Z,249.74
2023-04-11T10:03:50.894Z,249.74
2023-04-11T10:04:50.815Z,249.58
2023-04-11T10:05:50.758Z,250.00
2023-04-11T10:06:50.801Z,249.20
2023-04-11T10:07:50.722Z,248.77
2023-04-11T10:08:50.700Z,248.10
2023-04-11T10:09:50.680Z,250.00
2023-04-11T10:10:50.660Z,249.42
2023-04-11T10:11:50.641Z,249.54
2023-04-11T10:12:50.619Z,248.94
2023-04-11T10:13:50.606Z,249.10
2023-04-11T10:14:50.619Z,249.08
2023-04-11T10:15:50.565Z,249.74
2023-04-11T10:16:50.623Z,248.66
2023-04-11T10:17:50.547Z,246.15
2023-04-11T10:18:50.520Z,245.21
2023-04-11T10:19:50.708Z,245.13
2023-04-11T10:20:50.612Z,244.85
2023-04-11T10:21:50.572Z,245.27
2023-04-11T10:22:50.714Z,243.84
2023-04-11T10:23:50.785Z,244.32
2023-04-11T10:24:50.686Z,242.86
2023-04-11T10:25:50.729Z,242.69
2023-04-11T10:26:50.801Z,241.43
2023-04-11T10:27:50.836Z,240.86
2023-04-11T10:28:50.871Z,240.24
2023-04-11T10:29:51.842Z,237.49
2023-04-11T10:30:50.941Z,237.07
2023-04-11T10:31:51.017Z,235.78
2023-04-11T10:32:51.050Z,235.55
2023-04-11T10:33:51.064Z,234.75
2023-04-11T10:34:51.111Z,232.44
2023-04-11T10:35:51.236Z,232.09
2023-04-11T10:36:51.223Z,229.29
2023-04-11T10:37:51.283Z,228.88
2023-04-11T10:38:51.449Z,227.29
2023-04-11T10:39:51.396Z,225.75
2023-04-11T10:40:51.423Z,225.30
2023-04-11T10:41:51.480Z,223.91
2023-04-11T10:42:51.561Z,221.47
2023-04-11T10:43:51.602Z,219.59
2023-04-11T10:44:51.637Z,218.84
2023-04-11T10:45:51.690Z,218.10
2023-04-11T10:46:51.773Z,216.70
2023-04-11T10:47:51.820Z,215.05
2023-04-11T10:48:51.826Z,214.88
2023-04-11T10:49:51.856Z,212.05
2023-04-11T10:50:51.870Z,211.25
2023-04-11T10:51:51.899Z,209.59
2023-04-11T10:52:53.478Z,208.18
2023-04-11T10:53:51.959Z,205.39
2023-04-11T10:54:52.007Z,203.68
2023-04-11T10:55:52.142Z,203.16
2023-04-11T10:56:52.103Z,203.83
2023-04-11T10:57:52.221Z,201.74
2023-04-11T10:58:52.118Z,199.98
2023-04-11T10:59:52.127Z,199.50
2023-04-11T11:00:52.286Z,196.90
2023-04-11T11:01:52.588Z,195.19
2023-04-11T11:02:52.663Z,192.67
2023-04-11T11:03:52.346Z,193.58
2023-04-11T11:04:52.349Z,193.20
2023-04-11T11:05:52.216Z,192.00
2023-04-11T11:06:57.192Z,189.94
2023-04-11T11:07:53.502Z,189.97
2023-04-11T11:08:52.481Z,188.86
2023-04-11T11:09:52.256Z,186.77
2023-04-11T11:10:52.235Z,184.30
2023-04-11T11:11:52.290Z,183.20
2023-04-11T11:12:52.230Z,182.05
2023-04-11T11:13:52.256Z,181.76
2023-04-11T11:14:52.212Z,179.56
2023-04-11T11:15:52.215Z,178.76
2023-04-11T11:16:52.239Z,178.65
2023-04-11T11:17:52.311Z,176.19
2023-04-11T11:18:52.173Z,175.75
2023-04-11T11:19:52.154Z,175.14
2023-04-11T11:20:52.156Z,175.12
2023-04-11T11:21:52.146Z,172.99
2023-04-11T11:22:52.120Z,173.01
2023-04-11T11:23:52.114Z,174.53
2023-04-11T11:24:52.112Z,174.31
2023-04-11T11:25:52.091Z,173.31
2023-04-11T11:26:52.088Z,172.55
2023-04-11T11:27:52.077Z,170.76
2023-04-11T11:28:52.090Z,170.32
2023-04-11T11:29:52.039Z,169.84
2023-04-11T11:30:54.032Z,169.91
2023-04-11T11:31:52.086Z,170.11
2023-04-11T11:32:52.087Z,168.67
2023-04-11T11:33:53.961Z,166.78
2023-04-11T11:34:51.998Z,166.13
2023-04-11T11:35:52.009Z,164.99
2023-04-11T11:36:52.066Z,162.79
2023-04-11T11:37:52.992Z,162.76
2023-04-11T11:38:51.982Z,162.61
2023-04-11T11:39:51.976Z,162.73
2023-04-11T11:40:51.959Z,161.39
2023-04-11T11:41:51.957Z,160.17
2023-04-11T11:42:52.353Z,157.67
2023-04-11T11:43:51.941Z,155.76
2023-04-11T11:44:51.935Z,155.05
2023-04-11T11:45:51.965Z,155.65
2023-04-11T11:46:51.915Z,155.91
2023-04-11T11:47:51.983Z,153.44
2023-04-11T11:48:51.909Z,152.31
2023-04-11T11:49:51.939Z,152.50
2023-04-11T11:50:51.884Z,153.12
2023-04-11T11:51:51.898Z,152.56
2023-04-11T11:52:51.874Z,151.84
2023-04-11T11:53:51.894Z,149.56
2023-04-11T11:54:51.886Z,149.33
2023-04-11T11:55:51.902Z,149.09
2023-04-11T11:56:51.980Z,148.75
2023-04-11T11:57:51.927Z,149.47
2023-04-11T11:58:51.929Z,148.33
2023-04-11T11:59:51.916Z,147.35
2023-04-11T12:00:51.948Z,147.49
2023-04-11T12:01:51.956Z,145.67
2023-04-11T12:02:52.071Z,144.55
2023-04-11T12:03:52.176Z,143.65
2023-04-11T12:04:52.126Z,142.62
2023-04-11T12:05:51.948Z,143.09
2023-04-11T12:06:51.956Z,142.91
2023-04-11T12:07:51.950Z,142.04
2023-04-11T12:08:51.997Z,142.52
2023-04-11T12:09:51.952Z,141.97
2023-04-11T12:10:51.941Z,132.11
2023-04-11T12:11:51.969Z,107.21
2023-04-11T12:12:53.342Z,104.73
2023-04-11T12:13:51.965Z,91.53
2023-04-11T12:14:51.962Z,98.04
2023-04-11T12:15:51.993Z,103.71
2023-04-11T12:16:51.958Z,108.57
2023-04-11T12:17:52.056Z,113.88
2023-04-11T12:18:51.982Z,118.61
2023-04-11T12:19:51.978Z,123.17
2023-04-11T12:20:51.985Z,124.60
2023-04-11T12:21:51.996Z,126.36
2023-04-11T12:22:53.747Z,128.23
2023-04-11T12:23:51.998Z,129.26
2023-04-11T12:24:51.973Z,132.27
2023-04-11T12:25:51.983Z,132.66
2023-04-11T12:27:06.139Z,134.01
2023-04-11T12:27:52.949Z,134.07
2023-04-11T12:28:51.940Z,134.39
2023-04-11T12:29:51.919Z,134.64
2023-04-11T12:30:52.028Z,135.02